Расследование завершено Катастрофа Falcon 50 во Внуково 20.10.2014

S

Strannik

Старожил
Около 23:55.

"Самолет на взлете, по предварительным данным, столкнулся со снегоуборочной машиной, что привело к резкому снижению скорости и падению", - сказал источник
http://www.interfax.ru/402885

Следовал рейсом Внуково — Ля-Бурже.

Фалькон с французской регистрацией. В результате столкновения погибли 4 человека.
Пассажир - Президент [CEO] французского энергетического концерна Total Кристоф де Маржери.
Три члена экипажа частного самолета: бортпроводник Рассья Перафорья Максим Жан Мари, Фалюк Руслана и Никон Яннь Жак Жозеф
http://lifenews.ru/news/143203

UUWW
Прогноз, действительный от 20 в 21 UTC к 21 в 21 UTC
Ветер 4 kt от переменных указаний
Видимость 300 m
сплошная облачность на высоте 100 ft
Температура 2°C
Влажность 93%
Слабый дождь и туман
UN2232 из Сочи ушёл на запасной в Домодедово; прибыл во Внуково в 3:15 с опозданием на 6,5 часов. И далее поздним прибытием ВС задержался на 3 часа вылет UN171 в Новый Уренгой.
UN190 из Минвод кружил 40 минут и сел после открытия в 1:34 на ВПП 19.
Сейчас работает 19-я полоса, 06/24-я закрыта.
 
Последнее редактирование:
Реклама
andreyolder

andreyolder

Местный
Метео вроде не шибко сложные
UUWW 202130Z 13003MPS 0600 R06/1200VP1500D -SHRA FG VV004 02/01 Q0993 06510150 TEMPO 0200 FG OVC001
UUWW 202100Z 14003MPS 0700 R06/P1500U -DZ FG VV005 02/01 Q0993 06510150 TEMPO 0200 FG OVC001
UUWW 202030Z 14003MPS 0600 R06/1400VP1500U -DZ FG VV005 02/01 Q0994 06510150 TEMPO 0200 FG OVC001
UUWW 202000Z 13003MPS 0350 R06/0900V1100U -DZ FG VV003 01/01 Q0994 06510150 TEMPO 0200 FG OVC001
UUWW 201930Z 13003MPS 0600 R06/1400D -DZ FG VV002 01/01 Q0994 06510150 TEMPO 0200 FG OVC001
UUWW 201900Z 13003MPS 0250 R06/0650V0900U -SHRA FG VV002 01/01 Q0994 06510150 TEMPO 0200 FG OVC001 RMK QBB060
 
mrimidalv

mrimidalv

Местный
http://lifenews.ru/news/143199
По словам источников в правоохранительных органах, самолет, разгонявшийся по ВПП Внуково, зацепил одним из шасси при подъеме снегоуборочную машину, расчищавшую полосу. Машина получила серьезные повреждения и командиром экипажа было принято решение о возврате во Внуково. Однако самолет не сумел приземлиться и развалился при заходе на посадку. При падении Фалькон перевернулся и рухнул на землю.
 
KYLmi

KYLmi

Старожил
Ничему история не учит. А если бы это был не Falcon 50, как в 1984. Уволить, посадить всех однозначно!
 
APKAH

APKAH

Старожил
Ничему история не учит. А если бы это был не Falcon 50, как в 1984. Уволить, посадить всех однозначно!
Тогда, 30 лет назад, 11.10.1984 при столкновении со снегоуборщиками на ВПП аэропорта Омск погибло 178 человек...
http://www.youtube.com/watch?v=xLm28QibULo
Выводы комиссии, расследовавшей АП в 1984 году:
Заключение: Катастрофа произошла по причине низкой дисциплины, преступно-халатного отношения к работе по обеспечению полетов и грубых нарушений нормативных документов МГА (НПП ГА-78, НАС ГА-80, НСД ГА-81, приказа Министра гражданской авиации от 01.02.84) в службах аэропорта Омск: преступного отношения к служебным обязанностям руководителя полетов, диспетчера старта и мастера аэродромной службы; допуска для работы на летном поле аэродромных машин, не оборудованных проблесковыми маяками и радиостанцией для прослушивания эфира.
Авиационному происшествию способствовали незнание истинного положения дел в наземных службах, отсутствие системы контроля за подготовкой специалистов управления воздушным движением, неудовлетворительная организация и нарушения документов, регламентирующих безопасность полетов, со стороны командно-руководящего состава ЗСУ ГА и Омского ОАО, некачественный подбор и расстановка кадров, слабая политико-воспитательная работа и низкая дисциплина.
 
S

Strannik

Старожил
через "внучку" проходит 90% трафика бизнес-джетов, такое убийство самолета нехило ударит по мозгам олигархов
Здесь больше инвестиционный аспект - приехал человек на встречу с Медведевым, а тут в главном аэропорту страны приключается такое. Потенциальные инвесторы и без санкций покрутят пальцем у виска.
 
M

ML

Старожил
Водитель снегоуборочной машины, столкнувшейся с бизнес-джетом президента Total Кристофа де Маржери, был пьян. В числе приоритетных версий случившегося следствие также рассматривает ошибку диспетчеров.

Кроме того, будут проверены версии неблагоприятных погодных условий и ошибки пилотирования. Об этом сообщил официальный представитель Следственного комитета России Владимир Маркин.

«В настоящее время уже установлено, что водитель снегоуборочной машины находился в состоянии алкогольного опьянения. Кроме того, возможно, будет принято решение об отстранении ряда сотрудников аэропорта от выполнения обязанностей на период расследования уголовного дела», — цитирует Маркина пресс-служба СКР.
 
Реклама
7

74aa

Новичок
В настоящее время уже установлено, что водитель снегоуборочной машины находился в состоянии алкогольного опьянения" - сообщил официальный представитель СКР Владимир Маркин «Интерфаксу»
 
J

Jed Meyers

Новичок
В настоящее время уже установлено, что водитель снегоуборочной машины находился в состоянии алкогольного опьянения" - сообщил официальный представитель СКР Владимир Маркин «Интерфаксу»
Козла отпущения назначили уже, судя по всему.
 
E

Ehidna

заблокирован
В настоящее время уже установлено, что водитель снегоуборочной машины находился в состоянии алкогольного опьянения" - сообщил официальный представитель СКР Владимир Маркин «Интерфаксу»
Да хоть в каком состоянии. После очистки он должен свалить с полосы и доложиться. Следом должна пройти аэродромная машина, оценить качество уборки и посмотреть чтоб никаких лишних предметов на полосе не осталось. Только после доклада контролера диспетчер открывает полосу.
 
X-Pilot

X-Pilot

Местный
Судя по фото и видео, зацепился крылом на разбеге/отрыве, т.к. фюзеляж более-менее цел, передняя стойка не повреждена. Очень удивлюсь, если французский экипаж решил взлетать без разрешения в России да еще и при такой погоде. Исключив эту версию, остается только один вариант...
 
J

Jed Meyers

Новичок
Исключив эту версию, остается только один вариант...
Если это действительно случившийся вариант, то интересно какая цепочка событий к нему привела. Не может же пьяный уборщик просто так взять машину и поехать кататься по ВПП. Кто его допустил пьяного к работе? И т. д.
 
X-Pilot

X-Pilot

Местный
Водитель снегоуборочной машины, столкнувшейся с бизнес-джетом президента Total Кристофа де Маржери, был пьян. В числе приоритетных версий случившегося следствие также рассматривает ошибку диспетчеров.

Кроме того, будут проверены версии неблагоприятных погодных условий и ошибки пилотирования. Об этом сообщил официальный представитель Следственного комитета России Владимир Маркин.

«В настоящее время уже установлено, что водитель снегоуборочной машины находился в состоянии алкогольного опьянения. Кроме того, возможно, будет принято решение об отстранении ряда сотрудников аэропорта от выполнения обязанностей на период расследования уголовного дела», — цитирует Маркина пресс-служба СКР.
Я бы не стал так резво подхватывать эту версию. Пьян он был или трезв, никто не освобождал его от выполнения процедур и докладов, предусмотренных при уборке полосы. Единственный вариант, как предположили ранее, несанкционированный выезд покататься.
 
Kurt

Kurt

Местный
Единственный вариант, как предположили ранее, несанкционированный выезд покататься.
До какой степени надо:
1. Набухаться, что бы гуляй-рванина - покатаемся по полосе с ветерком;
2. Не быть замеченными коллегами в состоянии, отвечающем п. 1.
 
Экзот

Экзот

Элефантерия
Очень удивлюсь, если французский экипаж решил взлетать без разрешения в России да еще и при такой погоде. Исключив эту версию, остается только один вариант...
А в ВНК есть локаторы обзора поля, где будет видна аэродромная машина? Если нет, то может быть вот такое — уборщик преждевременно доложил освобождение, такое случается. Диспетчер, опершись только на доклад уборщика, дал "добро" на взлёт. Если, действительно, зацепился только крылом, то и получается, что уборщик уже почти ушёл с полосы.
 
SPB-KJA

SPB-KJA

Местный
Единственный вариант, как предположили ранее, несанкционированный выезд покататься.
не представляю, как такое может быть. скорее, его неверно скоординировали. он, будучи трезв или пьян, должен же понимать, что это впп
 
Реклама
Пан Атаман

Пан Атаман

Старожил
В настоящее время уже установлено, что водитель снегоуборочной машины находился в состоянии алкогольного опьянения" - сообщил официальный представитель СКР Владимир Маркин «Интерфаксу»
Это капец. Интересно, попрут Маркина с должности или и это пройдет. То есть мы устами пресс-службы СКР только что на весь мир объявили, что по аэропорту, из которого летают в т.ч. различные борта номер 1, катаются алкаши на снегоуборщиках.